Stena Suede — ZCEF5 — position and weather

sailwx.info

Track history (hours):
 
Tides and Currents Weather Stations Pressure Air Temp Water Temp Dewpoint Dewpoint Depression Visibility Wind Speed Wind Dir Waves Ship Positions

Stena Suede

Last reported at 2014-Dec-14 04:08 UTC. Time now 2014-Dec-21 20:52 UTC.
Position N 50°24' W 000°32'.

Length 274 m; draft 9.2 m.

Type: Tanker. MMSI: 310622000.

Date/timePositionNaut miles runAvg speedWind from/ knotsBaromVisibWave heightAir tempDewpointWater temp
2014-Dec-14 04:08N 50°24' W 000°32'1312.1
2014-Dec-14 03:04N 50°28' W 000°13'911.5
2014-Dec-14 02:20N 50°30' W 000°00'1011.2
2014-Dec-14 01:27N 50°33' E 000°15'1011.1
2014-Dec-14 00:33N 50°36' E 000°30'1211.9
2014-Dec-13 23:33N 50°42' E 000°46'1313.1
2014-Dec-13 22:33N 50°49' E 001°04'1413.6
2014-Dec-13 21:33N 50°57' E 001°20'1313.4
2014-Dec-13 20:33N 51°07' E 001°35'1212.1
2014-Dec-13 19:33N 51°15' E 001°48'1111.5
2014-Dec-13 18:34N 51°26' E 001°56'1111.1
2014-Dec-13 17:34N 51°35' E 002°07'1211.3
2014-Dec-13 16:32N 51°43' E 002°21'5211.7
2014-Dec-13 12:04N 52°03' E 003°38'612.4
2014-Dec-13 11:34N 52°03' E 003°48'9 8.6
2014-Dec-13 10:34N 51°60' E 004°02'2 2.2
2014-Dec-13 09:31N 51°58' E 004°04'0 0.0
2014-Dec-13 08:31N 51°58' E 004°04'0 0.0
2014-Dec-13 07:31N 51°58' E 004°04'0 0.0
2014-Dec-13 06:31N 51°58' E 004°04'0 0.0
2014-Dec-13 05:31N 51°58' E 004°04'0 0.0
2014-Dec-13 04:31N 51°58' E 004°04'0 0.0
2014-Dec-13 03:31N 51°58' E 004°04'0 0.0
2014-Dec-13 02:31N 51°58' E 004°04'0 0.0
2014-Dec-13 01:31N 51°58' E 004°04'0 0.0
2014-Dec-13 00:31N 51°58' E 004°04'0 0.0
2014-Dec-12 23:31N 51°58' E 004°04'0 0.0
2014-Dec-12 22:31N 51°58' E 004°04'0 0.0
2014-Dec-12 21:31N 51°58' E 004°04'0 0.0
2014-Dec-12 20:31N 51°58' E 004°04'0 0.0
2014-Dec-12 19:31N 51°58' E 004°04'0 0.0
2014-Dec-12 18:31N 51°58' E 004°04'0 0.0
2014-Dec-12 17:31N 51°58' E 004°04'0 0.0
2014-Dec-12 16:31N 51°58' E 004°04'0 0.0
2014-Dec-12 15:31N 51°58' E 004°04'0 0.0
2014-Dec-12 14:31N 51°58' E 004°04'0 0.0
2014-Dec-12 13:28N 51°58' E 004°04'0 0.0
2014-Dec-12 12:31N 51°58' E 004°04'0 0.0
2014-Dec-12 11:22N 51°58' E 004°04'0 0.0
2014-Dec-12 10:28N 51°58' E 004°04'0 0.0
2014-Dec-12 09:22N 51°58' E 004°04'0 0.0
2014-Dec-12 08:16N 51°58' E 004°04'0 0.0
2014-Dec-12 07:28N 51°58' E 004°04'0 0.0
2014-Dec-12 06:28N 51°58' E 004°04'0 0.0
2014-Dec-12 05:28N 51°58' E 004°04'0 0.0
2014-Dec-12 04:22N 51°58' E 004°04'0 0.0
2014-Dec-12 02:28N 51°58' E 004°04'0 0.0
2014-Dec-12 01:31N 51°58' E 004°04'0 0.0
2014-Dec-12 00:10N 51°58' E 004°04'0 0.0
2014-Dec-11 23:22N 51°58' E 004°04'0 0.0
2014-Dec-11 22:31N 51°58' E 004°04'0 0.0
2014-Dec-11 21:16N 51°58' E 004°04'0 0.0
2014-Dec-11 20:31N 51°58' E 004°04'0 0.0
2014-Dec-11 19:31N 51°58' E 004°04'0 0.0
2014-Dec-11 18:31N 51°58' E 004°04'0 0.0
2014-Dec-11 17:25N 51°58' E 004°04'0 0.0
2014-Dec-11 16:31N 51°58' E 004°04'0 0.0
2014-Dec-11 15:28N 51°58' E 004°04'0 0.0
2014-Dec-11 14:28N 51°58' E 004°04'0 0.0
2014-Dec-11 13:10N 51°58' E 004°04'0 0.0
2014-Dec-11 12:28N 51°58' E 004°04'0 0.0
2014-Dec-11 11:25N 51°58' E 004°04'0 0.0
2014-Dec-11 10:28N 51°58' E 004°04'0 0.0
2014-Dec-11 09:28N 51°58' E 004°04'0 0.0
2014-Dec-11 08:22N 51°58' E 004°04'0 0.0
2014-Dec-11 05:25N 51°58' E 004°04'0 0.0
2014-Dec-11 04:07N 51°58' E 004°04'0 0.0
2014-Dec-11 03:31N 51°58' E 004°04'0 0.0
2014-Dec-11 02:28N 51°58' E 004°04'0 0.0
2014-Dec-11 01:31N 51°58' E 004°04'0 0.2
2014-Dec-11 00:34N 51°58' E 004°04'5 5.3
2014-Dec-10 23:33N 51°60' E 003°56'3 3.0
2014-Dec-10 22:34N 52°02' E 003°52'2 2.0
2014-Dec-10 21:34N 52°01' E 003°55'9 8.6
2014-Dec-10 20:32N 51°58' E 003°41'5 5.0
2014-Dec-10 19:33N 51°56' E 003°34'0 0.1
2014-Dec-10 18:24N 51°56' E 003°35'0 0.0
2014-Dec-10 14:03N 51°56' E 003°35'0 0.0
2014-Dec-10 05:18N 51°56' E 003°34'0 0.0
2014-Dec-10 04:33N 51°56' E 003°34'0 0.0
2014-Dec-10 03:33N 51°56' E 003°34'0 0.1
2014-Dec-10 02:33N 51°56' E 003°35'0 0.0
2014-Dec-10 01:30N 51°56' E 003°35'0 0.0
2014-Dec-09 22:33N 51°56' E 003°34'0 0.0
2014-Dec-09 18:30N 51°56' E 003°34'0 0.0
2014-Dec-09 11:09N 51°56' E 003°34'1 1.0
2014-Dec-09 10:33N 51°55' E 003°33'4210.6
2014-Dec-09 06:33N 51°40' E 002°29'1413.4
2014-Dec-09 05:33N 51°31' E 002°14'1312.9
2014-Dec-09 04:33N 51°19' E 002°07'1211.8
2014-Dec-09 03:33N 51°11' E 001°53'1414.0
2014-Dec-09 02:34N 51°01' E 001°38'11113.5
2014-Dec-08 18:19N 49°44' W 000°28'1012.7
2014-Dec-08 17:33N 49°35' W 000°21'1313.2
2014-Dec-08 16:34N 49°31' W 000°02'8 7.9
2014-Dec-08 15:33N 49°28' E 000°09'0 0.0
2014-Dec-08 14:31N 49°28' E 000°09'0 0.0
2014-Dec-08 13:31N 49°28' E 000°09'0 0.0
2014-Dec-08 12:31N 49°28' E 000°09'0 0.0
2014-Dec-08 11:25N 49°28' E 000°09'0 0.0
2014-Dec-08 10:31N 49°28' E 000°09'0 0.0
2014-Dec-08 09:31N 49°28' E 000°09'0 0.0
2014-Dec-08 08:31N 49°28' E 000°09'0 0.0
2014-Dec-08 07:31N 49°28' E 000°09'0 0.0
2014-Dec-08 06:31N 49°28' E 000°09'0 0.0
2014-Dec-08 05:31N 49°28' E 000°09'0 0.0
2014-Dec-08 04:28N 49°28' E 000°09'0 0.0
2014-Dec-08 03:31N 49°28' E 000°09'0 0.0
2014-Dec-08 02:31N 49°28' E 000°09'0 0.0
2014-Dec-08 01:31N 49°28' E 000°09'0 0.0
2014-Dec-08 00:31N 49°28' E 000°09'0 0.0
2014-Dec-07 23:31N 49°28' E 000°09'0 0.0
2014-Dec-07 22:31N 49°28' E 000°09'0 0.0
2014-Dec-07 21:33N 49°28' E 000°09'2 2.3
2014-Dec-07 20:33N 49°29' E 000°06'10 9.7
2014-Dec-07 19:33N 49°32' W 000°08'6 5.6
2014-Dec-07 18:33N 49°36' W 000°15'0 0.4
2014-Dec-07 17:32N 49°36' W 000°15'0 0.1
2014-Dec-07 16:32N 49°36' W 000°15'0 0.0
2014-Dec-07 15:32N 49°36' W 000°15'0 0.0
2014-Dec-07 14:32N 49°36' W 000°15'0 0.1
2014-Dec-07 13:32N 49°36' W 000°15'0 0.2
2014-Dec-07 12:32N 49°36' W 000°14'0 0.1
2014-Dec-07 11:32N 49°36' W 000°14'0 0.0
2014-Dec-07 10:32N 49°36' W 000°14'0 0.0
2014-Dec-07 09:32N 49°36' W 000°14'0 0.0
2014-Dec-07 08:32N 49°36' W 000°14'0 0.1
2014-Dec-07 07:32N 49°36' W 000°14'0 0.1
2014-Dec-07 06:32N 49°36' W 000°14'0 0.3
2014-Dec-07 05:32N 49°36' W 000°15'0 0.0
2014-Dec-07 04:32N 49°36' W 000°15'0 0.0
2014-Dec-07 03:32N 49°36' W 000°15'0 0.0
2014-Dec-07 02:32N 49°36' W 000°15'0 0.1
2014-Dec-07 01:32N 49°36' W 000°15'0 0.0
2014-Dec-07 00:32N 49°36' W 000°15'0 0.2
2014-Dec-06 23:32N 49°36' W 000°14'0 0.0
2014-Dec-06 22:32N 49°36' W 000°14'0 0.0
2014-Dec-06 21:32N 49°36' W 000°14'0 0.0
2014-Dec-06 20:32N 49°36' W 000°14'0 0.1
2014-Dec-06 19:32N 49°36' W 000°14'0 0.1
2014-Dec-06 18:32N 49°36' W 000°14'0 0.1
2014-Dec-06 17:32N 49°36' W 000°14'0 0.2
2014-Dec-06 16:32N 49°36' W 000°15'0 0.0
2014-Dec-06 15:32N 49°36' W 000°15'0 0.0
2014-Dec-06 14:32N 49°36' W 000°15'0 0.0
2014-Dec-06 13:32N 49°36' W 000°15'0 0.0
2014-Dec-06 12:32N 49°36' W 000°15'0 0.1
2014-Dec-06 11:26N 49°36' W 000°15'0 0.2
2014-Dec-06 10:32N 49°36' W 000°14'0 0.1
2014-Dec-06 09:32N 49°36' W 000°14'0 0.1
2014-Dec-06 08:32N 49°36' W 000°14'5 5.1
2014-Dec-06 07:33N 49°38' W 000°22'  
Track history (hours):
 
Tides and Currents Weather Stations Pressure Air Temp Water Temp Dewpoint Dewpoint Depression Visibility Wind Speed Wind Dir Waves Ship Positions

Stena Suede

Last reported at 2014-Dec-14 04:08 UTC. Time now 2014-Dec-21 20:52 UTC.
Position N 50°24' W 000°32'.

Length 274 m; draft 9.2 m.

Type: Tanker. MMSI: 310622000.

Date/timePositionNaut miles runAvg speedWind from/ knotsBaromVisibWave heightAir tempDewpointWater temp
2014-Dec-14 04:08N 50°24' W 000°32'1312.1
2014-Dec-14 03:04N 50°28' W 000°13'911.5
2014-Dec-14 02:20N 50°30' W 000°00'1011.2
2014-Dec-14 01:27N 50°33' E 000°15'1011.1
2014-Dec-14 00:33N 50°36' E 000°30'1211.9
2014-Dec-13 23:33N 50°42' E 000°46'1313.1
2014-Dec-13 22:33N 50°49' E 001°04'1413.6
2014-Dec-13 21:33N 50°57' E 001°20'1313.4
2014-Dec-13 20:33N 51°07' E 001°35'1212.1
2014-Dec-13 19:33N 51°15' E 001°48'1111.5
2014-Dec-13 18:34N 51°26' E 001°56'1111.1
2014-Dec-13 17:34N 51°35' E 002°07'1211.3
2014-Dec-13 16:32N 51°43' E 002°21'5211.7
2014-Dec-13 12:04N 52°03' E 003°38'612.4
2014-Dec-13 11:34N 52°03' E 003°48'9 8.6
2014-Dec-13 10:34N 51°60' E 004°02'2 2.2
2014-Dec-13 09:31N 51°58' E 004°04'0 0.0
2014-Dec-13 08:31N 51°58' E 004°04'0 0.0
2014-Dec-13 07:31N 51°58' E 004°04'0 0.0
2014-Dec-13 06:31N 51°58' E 004°04'0 0.0
2014-Dec-13 05:31N 51°58' E 004°04'0 0.0
2014-Dec-13 04:31N 51°58' E 004°04'0 0.0
2014-Dec-13 03:31N 51°58' E 004°04'0 0.0
2014-Dec-13 02:31N 51°58' E 004°04'0 0.0
2014-Dec-13 01:31N 51°58' E 004°04'0 0.0
2014-Dec-13 00:31N 51°58' E 004°04'0 0.0
2014-Dec-12 23:31N 51°58' E 004°04'0 0.0
2014-Dec-12 22:31N 51°58' E 004°04'0 0.0
2014-Dec-12 21:31N 51°58' E 004°04'0 0.0
2014-Dec-12 20:31N 51°58' E 004°04'0 0.0
2014-Dec-12 19:31N 51°58' E 004°04'0 0.0
2014-Dec-12 18:31N 51°58' E 004°04'0 0.0
2014-Dec-12 17:31N 51°58' E 004°04'0 0.0
2014-Dec-12 16:31N 51°58' E 004°04'0 0.0
2014-Dec-12 15:31N 51°58' E 004°04'0 0.0
2014-Dec-12 14:31N 51°58' E 004°04'0 0.0
2014-Dec-12 13:28N 51°58' E 004°04'0 0.0
2014-Dec-12 12:31N 51°58' E 004°04'0 0.0
2014-Dec-12 11:22N 51°58' E 004°04'0 0.0
2014-Dec-12 10:28N 51°58' E 004°04'0 0.0
2014-Dec-12 09:22N 51°58' E 004°04'0 0.0
2014-Dec-12 08:16N 51°58' E 004°04'0 0.0
2014-Dec-12 07:28N 51°58' E 004°04'0 0.0
2014-Dec-12 06:28N 51°58' E 004°04'0 0.0
2014-Dec-12 05:28N 51°58' E 004°04'0 0.0
2014-Dec-12 04:22N 51°58' E 004°04'0 0.0
2014-Dec-12 02:28N 51°58' E 004°04'0 0.0
2014-Dec-12 01:31N 51°58' E 004°04'0 0.0
2014-Dec-12 00:10N 51°58' E 004°04'0 0.0
2014-Dec-11 23:22N 51°58' E 004°04'0 0.0
2014-Dec-11 22:31N 51°58' E 004°04'0 0.0
2014-Dec-11 21:16N 51°58' E 004°04'0 0.0
2014-Dec-11 20:31N 51°58' E 004°04'0 0.0
2014-Dec-11 19:31N 51°58' E 004°04'0 0.0
2014-Dec-11 18:31N 51°58' E 004°04'0 0.0
2014-Dec-11 17:25N 51°58' E 004°04'0 0.0
2014-Dec-11 16:31N 51°58' E 004°04'0 0.0
2014-Dec-11 15:28N 51°58' E 004°04'0 0.0
2014-Dec-11 14:28N 51°58' E 004°04'0 0.0
2014-Dec-11 13:10N 51°58' E 004°04'0 0.0
2014-Dec-11 12:28N 51°58' E 004°04'0 0.0
2014-Dec-11 11:25N 51°58' E 004°04'0 0.0
2014-Dec-11 10:28N 51°58' E 004°04'0 0.0
2014-Dec-11 09:28N 51°58' E 004°04'0 0.0
2014-Dec-11 08:22N 51°58' E 004°04'0 0.0
2014-Dec-11 05:25N 51°58' E 004°04'0 0.0
2014-Dec-11 04:07N 51°58' E 004°04'0 0.0
2014-Dec-11 03:31N 51°58' E 004°04'0 0.0
2014-Dec-11 02:28N 51°58' E 004°04'0 0.0
2014-Dec-11 01:31N 51°58' E 004°04'0 0.2
2014-Dec-11 00:34N 51°58' E 004°04'5 5.3
2014-Dec-10 23:33N 51°60' E 003°56'3 3.0
2014-Dec-10 22:34N 52°02' E 003°52'2 2.0
2014-Dec-10 21:34N 52°01' E 003°55'9 8.6
2014-Dec-10 20:32N 51°58' E 003°41'5 5.0
2014-Dec-10 19:33N 51°56' E 003°34'0 0.1
2014-Dec-10 18:24N 51°56' E 003°35'0 0.0
2014-Dec-10 14:03N 51°56' E 003°35'0 0.0
2014-Dec-10 05:18N 51°56' E 003°34'0 0.0
2014-Dec-10 04:33N 51°56' E 003°34'0 0.0
2014-Dec-10 03:33N 51°56' E 003°34'0 0.1
2014-Dec-10 02:33N 51°56' E 003°35'0 0.0
2014-Dec-10 01:30N 51°56' E 003°35'0 0.0
2014-Dec-09 22:33N 51°56' E 003°34'0 0.0
2014-Dec-09 18:30N 51°56' E 003°34'0 0.0
2014-Dec-09 11:09N 51°56' E 003°34'1 1.0
2014-Dec-09 10:33N 51°55' E 003°33'4210.6
2014-Dec-09 06:33N 51°40' E 002°29'1413.4
2014-Dec-09 05:33N 51°31' E 002°14'1312.9
2014-Dec-09 04:33N 51°19' E 002°07'1211.8
2014-Dec-09 03:33N 51°11' E 001°53'1414.0
2014-Dec-09 02:34N 51°01' E 001°38'11113.5
2014-Dec-08 18:19N 49°44' W 000°28'1012.7
2014-Dec-08 17:33N 49°35' W 000°21'1313.2
2014-Dec-08 16:34N 49°31' W 000°02'8 7.9
2014-Dec-08 15:33N 49°28' E 000°09'0 0.0
2014-Dec-08 14:31N 49°28' E 000°09'0 0.0
2014-Dec-08 13:31N 49°28' E 000°09'0 0.0
2014-Dec-08 12:31N 49°28' E 000°09'0 0.0
2014-Dec-08 11:25N 49°28' E 000°09'0 0.0
2014-Dec-08 10:31N 49°28' E 000°09'0 0.0
2014-Dec-08 09:31N 49°28' E 000°09'0 0.0
2014-Dec-08 08:31N 49°28' E 000°09'0 0.0
2014-Dec-08 07:31N 49°28' E 000°09'0 0.0
2014-Dec-08 06:31N 49°28' E 000°09'0 0.0
2014-Dec-08 05:31N 49°28' E 000°09'0 0.0
2014-Dec-08 04:28N 49°28' E 000°09'0 0.0
2014-Dec-08 03:31N 49°28' E 000°09'0 0.0
2014-Dec-08 02:31N 49°28' E 000°09'0 0.0
2014-Dec-08 01:31N 49°28' E 000°09'0 0.0
2014-Dec-08 00:31N 49°28' E 000°09'0 0.0
2014-Dec-07 23:31N 49°28' E 000°09'0 0.0
2014-Dec-07 22:31N 49°28' E 000°09'0 0.0
2014-Dec-07 21:33N 49°28' E 000°09'2 2.3
2014-Dec-07 20:33N 49°29' E 000°06'10 9.7
2014-Dec-07 19:33N 49°32' W 000°08'6 5.6
2014-Dec-07 18:33N 49°36' W 000°15'0 0.4
2014-Dec-07 17:32N 49°36' W 000°15'0 0.1
2014-Dec-07 16:32N 49°36' W 000°15'0 0.0
2014-Dec-07 15:32N 49°36' W 000°15'0 0.0
2014-Dec-07 14:32N 49°36' W 000°15'0 0.1
2014-Dec-07 13:32N 49°36' W 000°15'0 0.2
2014-Dec-07 12:32N 49°36' W 000°14'0 0.1
2014-Dec-07 11:32N 49°36' W 000°14'0 0.0
2014-Dec-07 10:32N 49°36' W 000°14'0 0.0
2014-Dec-07 09:32N 49°36' W 000°14'0 0.0
2014-Dec-07 08:32N 49°36' W 000°14'0 0.1
2014-Dec-07 07:32N 49°36' W 000°14'0 0.1
2014-Dec-07 06:32N 49°36' W 000°14'0 0.3
2014-Dec-07 05:32N 49°36' W 000°15'0 0.0
2014-Dec-07 04:32N 49°36' W 000°15'0 0.0
2014-Dec-07 03:32N 49°36' W 000°15'0 0.0
2014-Dec-07 02:32N 49°36' W 000°15'0 0.1
2014-Dec-07 01:32N 49°36' W 000°15'0 0.0
2014-Dec-07 00:32N 49°36' W 000°15'0 0.2
2014-Dec-06 23:32N 49°36' W 000°14'0 0.0
2014-Dec-06 22:32N 49°36' W 000°14'0 0.0
2014-Dec-06 21:32N 49°36' W 000°14'0 0.0
2014-Dec-06 20:32N 49°36' W 000°14'0 0.1
2014-Dec-06 19:32N 49°36' W 000°14'0 0.1
2014-Dec-06 18:32N 49°36' W 000°14'0 0.1
2014-Dec-06 17:32N 49°36' W 000°14'0 0.2
2014-Dec-06 16:32N 49°36' W 000°15'0 0.0
2014-Dec-06 15:32N 49°36' W 000°15'0 0.0
2014-Dec-06 14:32N 49°36' W 000°15'0 0.0
2014-Dec-06 13:32N 49°36' W 000°15'0 0.0
2014-Dec-06 12:32N 49°36' W 000°15'0 0.1
2014-Dec-06 11:26N 49°36' W 000°15'0 0.2
2014-Dec-06 10:32N 49°36' W 000°14'0 0.1
2014-Dec-06 09:32N 49°36' W 000°14'0 0.1
2014-Dec-06 08:32N 49°36' W 000°14'5 5.1
2014-Dec-06 07:33N 49°38' W 000°22'  

Dump ship's entire track history